sensor_id;sensor_type;location;lat;lon;timestamp;P1;durP1;ratioP1;P2;durP2;ratioP2
11823;SDS011;5969;50.780;7.726;2023-05-29T00:02:00;5.38;;;3.10;;
11823;SDS011;5969;50.780;7.726;2023-05-29T00:04:27;3.65;;;3.15;;
11823;SDS011;5969;50.780;7.726;2023-05-29T00:06:54;4.00;;;3.10;;
11823;SDS011;5969;50.780;7.726;2023-05-29T00:09:22;4.22;;;2.85;;
11823;SDS011;5969;50.780;7.726;2023-05-29T00:11:50;5.40;;;3.38;;
11823;SDS011;5969;50.780;7.726;2023-05-29T00:14:18;4.88;;;3.53;;
11823;SDS011;5969;50.780;7.726;2023-05-29T00:16:45;5.93;;;3.58;;
11823;SDS011;5969;50.780;7.726;2023-05-29T00:19:14;5.47;;;3.60;;
11823;SDS011;5969;50.780;7.726;2023-05-29T00:21:41;6.03;;;3.88;;
11823;SDS011;5969;50.780;7.726;2023-05-29T00:24:08;5.10;;;3.75;;
11823;SDS011;5969;50.780;7.726;2023-05-29T00:26:37;4.82;;;3.33;;
11823;SDS011;5969;50.780;7.726;2023-05-29T00:29:03;5.10;;;3.10;;
11823;SDS011;5969;50.780;7.726;2023-05-29T00:31:30;5.38;;;3.45;;
11823;SDS011;5969;50.780;7.726;2023-05-29T00:33:57;4.15;;;3.22;;
11823;SDS011;5969;50.780;7.726;2023-05-29T00:36:23;7.47;;;3.40;;
11823;SDS011;5969;50.780;7.726;2023-05-29T00:38:50;5.00;;;3.42;;
11823;SDS011;5969;50.780;7.726;2023-05-29T00:41:17;5.70;;;3.38;;
11823;SDS011;5969;50.780;7.726;2023-05-29T00:43:45;5.28;;;3.47;;
11823;SDS011;5969;50.780;7.726;2023-05-29T00:46:13;6.47;;;3.20;;
11823;SDS011;5969;50.780;7.726;2023-05-29T00:48:41;7.15;;;3.63;;
11823;SDS011;5969;50.780;7.726;2023-05-29T00:51:08;5.30;;;3.45;;
11823;SDS011;5969;50.780;7.726;2023-05-29T00:53:37;5.40;;;3.35;;
11823;SDS011;5969;50.780;7.726;2023-05-29T00:56:04;4.68;;;3.22;;
11823;SDS011;5969;50.780;7.726;2023-05-29T00:58:32;5.28;;;3.33;;
11823;SDS011;5969;50.780;7.726;2023-05-29T01:01:01;8.50;;;3.47;;
11823;SDS011;5969;50.780;7.726;2023-05-29T01:03:28;4.60;;;3.13;;
11823;SDS011;5969;50.780;7.726;2023-05-29T01:05:57;6.20;;;3.90;;
11823;SDS011;5969;50.780;7.726;2023-05-29T01:08:24;3.30;;;3.00;;
11823;SDS011;5969;50.780;7.726;2023-05-29T01:10:51;6.65;;;3.63;;
11823;SDS011;5969;50.780;7.726;2023-05-29T01:13:23;6.20;;;3.95;;
11823;SDS011;5969;50.780;7.726;2023-05-29T01:15:57;5.13;;;3.63;;
11823;SDS011;5969;50.780;7.726;2023-05-29T01:18:34;4.90;;;3.53;;
11823;SDS011;5969;50.780;7.726;2023-05-29T01:21:08;4.13;;;3.38;;
11823;SDS011;5969;50.780;7.726;2023-05-29T01:23:43;4.40;;;2.97;;
11823;SDS011;5969;50.780;7.726;2023-05-29T01:26:22;5.63;;;3.75;;
11823;SDS011;5969;50.780;7.726;2023-05-29T01:29:12;5.25;;;3.33;;
11823;SDS011;5969;50.780;7.726;2023-05-29T01:31:41;4.68;;;3.72;;
11823;SDS011;5969;50.780;7.726;2023-05-29T01:34:09;5.40;;;3.30;;
11823;SDS011;5969;50.780;7.726;2023-05-29T01:36:36;5.03;;;3.58;;
11823;SDS011;5969;50.780;7.726;2023-05-29T01:39:03;6.53;;;3.72;;
11823;SDS011;5969;50.780;7.726;2023-05-29T01:41:31;5.80;;;3.80;;
11823;SDS011;5969;50.780;7.726;2023-05-29T01:44:01;4.50;;;3.42;;
11823;SDS011;5969;50.780;7.726;2023-05-29T01:46:29;5.30;;;3.47;;
11823;SDS011;5969;50.780;7.726;2023-05-29T01:48:56;4.25;;;3.33;;
11823;SDS011;5969;50.780;7.726;2023-05-29T01:51:23;4.72;;;3.35;;
11823;SDS011;5969;50.780;7.726;2023-05-29T01:53:50;5.65;;;3.53;;
11823;SDS011;5969;50.780;7.726;2023-05-29T01:56:17;4.25;;;3.58;;
11823;SDS011;5969;50.780;7.726;2023-05-29T01:58:44;5.90;;;3.60;;
11823;SDS011;5969;50.780;7.726;2023-05-29T02:01:13;3.78;;;3.25;;
11823;SDS011;5969;50.780;7.726;2023-05-29T02:03:40;5.40;;;3.63;;
11823;SDS011;5969;50.780;7.726;2023-05-29T02:06:06;5.10;;;3.38;;
11823;SDS011;5969;50.780;7.726;2023-05-29T02:08:33;4.10;;;3.20;;
11823;SDS011;5969;50.780;7.726;2023-05-29T02:11:00;3.92;;;3.22;;
11823;SDS011;5969;50.780;7.726;2023-05-29T02:13:27;6.50;;;3.67;;
11823;SDS011;5969;50.780;7.726;2023-05-29T02:15:54;6.32;;;3.50;;
11823;SDS011;5969;50.780;7.726;2023-05-29T02:18:22;3.58;;;3.20;;
11823;SDS011;5969;50.780;7.726;2023-05-29T02:20:49;5.75;;;3.58;;
11823;SDS011;5969;50.780;7.726;2023-05-29T02:23:16;4.35;;;3.67;;
11823;SDS011;5969;50.780;7.726;2023-05-29T02:25:44;5.47;;;3.65;;
11823;SDS011;5969;50.780;7.726;2023-05-29T02:28:11;4.10;;;3.53;;
11823;SDS011;5969;50.780;7.726;2023-05-29T02:30:38;5.28;;;3.65;;
11823;SDS011;5969;50.780;7.726;2023-05-29T02:33:04;4.55;;;3.47;;
11823;SDS011;5969;50.780;7.726;2023-05-29T02:35:34;4.93;;;3.80;;
11823;SDS011;5969;50.780;7.726;2023-05-29T02:38:01;3.88;;;3.50;;
11823;SDS011;5969;50.780;7.726;2023-05-29T02:40:28;5.57;;;3.67;;
11823;SDS011;5969;50.780;7.726;2023-05-29T02:42:54;6.13;;;3.80;;
11823;SDS011;5969;50.780;7.726;2023-05-29T02:45:21;4.72;;;3.17;;
11823;SDS011;5969;50.780;7.726;2023-05-29T02:47:48;4.65;;;3.42;;
11823;SDS011;5969;50.780;7.726;2023-05-29T02:50:15;4.75;;;3.33;;
11823;SDS011;5969;50.780;7.726;2023-05-29T02:52:43;5.45;;;3.20;;
11823;SDS011;5969;50.780;7.726;2023-05-29T02:55:09;5.35;;;3.85;;
11823;SDS011;5969;50.780;7.726;2023-05-29T02:57:36;5.30;;;3.97;;
11823;SDS011;5969;50.780;7.726;2023-05-29T03:00:03;5.03;;;3.65;;
11823;SDS011;5969;50.780;7.726;2023-05-29T03:02:32;5.05;;;3.83;;
11823;SDS011;5969;50.780;7.726;2023-05-29T03:04:59;5.03;;;3.75;;
11823;SDS011;5969;50.780;7.726;2023-05-29T03:07:26;9.40;;;4.43;;
11823;SDS011;5969;50.780;7.726;2023-05-29T03:09:55;5.97;;;3.83;;
11823;SDS011;5969;50.780;7.726;2023-05-29T03:12:21;5.97;;;3.58;;
11823;SDS011;5969;50.780;7.726;2023-05-29T03:14:49;4.95;;;3.78;;
11823;SDS011;5969;50.780;7.726;2023-05-29T03:17:16;4.97;;;3.53;;
11823;SDS011;5969;50.780;7.726;2023-05-29T03:19:42;6.35;;;3.92;;
11823;SDS011;5969;50.780;7.726;2023-05-29T03:22:09;5.13;;;3.60;;
11823;SDS011;5969;50.780;7.726;2023-05-29T03:24:36;5.50;;;3.55;;
11823;SDS011;5969;50.780;7.726;2023-05-29T03:27:04;5.07;;;4.10;;
11823;SDS011;5969;50.780;7.726;2023-05-29T03:29:31;6.47;;;3.90;;
11823;SDS011;5969;50.780;7.726;2023-05-29T03:31:58;5.18;;;3.63;;
11823;SDS011;5969;50.780;7.726;2023-05-29T03:34:25;5.25;;;4.15;;
11823;SDS011;5969;50.780;7.726;2023-05-29T03:36:52;4.75;;;3.67;;
11823;SDS011;5969;50.780;7.726;2023-05-29T03:39:19;5.43;;;4.28;;
11823;SDS011;5969;50.780;7.726;2023-05-29T03:41:46;7.15;;;3.95;;
11823;SDS011;5969;50.780;7.726;2023-05-29T03:44:14;6.90;;;4.38;;
11823;SDS011;5969;50.780;7.726;2023-05-29T03:46:41;4.93;;;4.43;;
11823;SDS011;5969;50.780;7.726;2023-05-29T03:49:07;6.55;;;4.43;;
11823;SDS011;5969;50.780;7.726;2023-05-29T03:51:34;6.40;;;4.10;;
11823;SDS011;5969;50.780;7.726;2023-05-29T03:54:01;4.63;;;3.67;;
11823;SDS011;5969;50.780;7.726;2023-05-29T03:56:28;6.22;;;4.10;;
11823;SDS011;5969;50.780;7.726;2023-05-29T03:58:55;9.55;;;4.72;;
11823;SDS011;5969;50.780;7.726;2023-05-29T04:01:23;5.45;;;4.03;;
11823;SDS011;5969;50.780;7.726;2023-05-29T04:03:50;5.88;;;3.95;;
11823;SDS011;5969;50.780;7.726;2023-05-29T04:06:17;7.63;;;4.45;;
11823;SDS011;5969;50.780;7.726;2023-05-29T04:08:43;6.80;;;3.97;;
11823;SDS011;5969;50.780;7.726;2023-05-29T04:11:10;6.15;;;4.13;;
11823;SDS011;5969;50.780;7.726;2023-05-29T04:13:38;7.53;;;4.55;;
11823;SDS011;5969;50.780;7.726;2023-05-29T04:16:05;6.78;;;4.30;;
11823;SDS011;5969;50.780;7.726;2023-05-29T04:18:34;8.40;;;4.72;;
11823;SDS011;5969;50.780;7.726;2023-05-29T04:21:01;7.95;;;4.03;;
11823;SDS011;5969;50.780;7.726;2023-05-29T04:23:28;6.95;;;4.30;;
11823;SDS011;5969;50.780;7.726;2023-05-29T04:25:55;6.00;;;4.32;;
11823;SDS011;5969;50.780;7.726;2023-05-29T04:28:21;5.22;;;4.15;;
11823;SDS011;5969;50.780;7.726;2023-05-29T04:30:49;5.22;;;4.28;;
11823;SDS011;5969;50.780;7.726;2023-05-29T04:33:17;5.95;;;4.47;;
11823;SDS011;5969;50.780;7.726;2023-05-29T04:35:47;5.40;;;4.45;;
11823;SDS011;5969;50.780;7.726;2023-05-29T04:38:14;7.75;;;4.90;;
11823;SDS011;5969;50.780;7.726;2023-05-29T04:40:41;6.13;;;4.20;;
11823;SDS011;5969;50.780;7.726;2023-05-29T04:43:09;8.10;;;4.72;;
11823;SDS011;5969;50.780;7.726;2023-05-29T04:45:36;4.63;;;4.05;;
11823;SDS011;5969;50.780;7.726;2023-05-29T04:48:03;7.47;;;4.80;;
11823;SDS011;5969;50.780;7.726;2023-05-29T04:50:29;6.95;;;4.32;;
11823;SDS011;5969;50.780;7.726;2023-05-29T04:52:58;5.75;;;4.05;;
11823;SDS011;5969;50.780;7.726;2023-05-29T04:55:25;6.78;;;4.65;;
11823;SDS011;5969;50.780;7.726;2023-05-29T04:57:52;6.97;;;4.60;;
11823;SDS011;5969;50.780;7.726;2023-05-29T05:00:19;5.88;;;4.38;;
11823;SDS011;5969;50.780;7.726;2023-05-29T05:02:47;7.15;;;4.47;;
11823;SDS011;5969;50.780;7.726;2023-05-29T05:05:17;9.00;;;4.78;;
11823;SDS011;5969;50.780;7.726;2023-05-29T05:07:44;6.38;;;4.45;;
11823;SDS011;5969;50.780;7.726;2023-05-29T05:10:12;6.63;;;4.68;;
11823;SDS011;5969;50.780;7.726;2023-05-29T05:12:39;6.97;;;4.57;;
11823;SDS011;5969;50.780;7.726;2023-05-29T05:15:06;5.70;;;4.53;;
11823;SDS011;5969;50.780;7.726;2023-05-29T05:17:34;7.57;;;4.88;;
11823;SDS011;5969;50.780;7.726;2023-05-29T05:20:01;6.63;;;4.80;;
11823;SDS011;5969;50.780;7.726;2023-05-29T05:22:30;7.47;;;5.20;;
11823;SDS011;5969;50.780;7.726;2023-05-29T05:24:57;8.35;;;4.78;;
11823;SDS011;5969;50.780;7.726;2023-05-29T05:27:26;7.55;;;4.88;;
11823;SDS011;5969;50.780;7.726;2023-05-29T05:29:53;7.25;;;5.15;;
11823;SDS011;5969;50.780;7.726;2023-05-29T05:32:20;8.80;;;5.13;;
11823;SDS011;5969;50.780;7.726;2023-05-29T05:34:47;6.60;;;5.07;;
11823;SDS011;5969;50.780;7.726;2023-05-29T05:37:13;8.98;;;4.57;;
11823;SDS011;5969;50.780;7.726;2023-05-29T05:39:40;5.75;;;4.72;;
11823;SDS011;5969;50.780;7.726;2023-05-29T05:42:07;9.50;;;4.72;;
11823;SDS011;5969;50.780;7.726;2023-05-29T05:44:35;6.97;;;4.95;;
11823;SDS011;5969;50.780;7.726;2023-05-29T05:47:01;7.35;;;4.60;;
11823;SDS011;5969;50.780;7.726;2023-05-29T05:49:29;6.13;;;4.75;;
11823;SDS011;5969;50.780;7.726;2023-05-29T05:51:55;5.15;;;4.53;;
11823;SDS011;5969;50.780;7.726;2023-05-29T05:54:22;5.55;;;4.63;;
11823;SDS011;5969;50.780;7.726;2023-05-29T05:56:49;6.38;;;5.18;;
11823;SDS011;5969;50.780;7.726;2023-05-29T05:59:15;6.88;;;4.28;;
11823;SDS011;5969;50.780;7.726;2023-05-29T06:01:44;6.90;;;4.90;;
11823;SDS011;5969;50.780;7.726;2023-05-29T06:04:10;6.80;;;5.15;;
11823;SDS011;5969;50.780;7.726;2023-05-29T06:06:37;9.50;;;4.43;;
11823;SDS011;5969;50.780;7.726;2023-05-29T06:09:04;7.03;;;4.57;;
11823;SDS011;5969;50.780;7.726;2023-05-29T06:11:31;7.43;;;4.78;;
11823;SDS011;5969;50.780;7.726;2023-05-29T06:13:58;8.07;;;4.97;;
11823;SDS011;5969;50.780;7.726;2023-05-29T06:16:25;6.75;;;4.47;;
11823;SDS011;5969;50.780;7.726;2023-05-29T06:18:53;7.22;;;4.82;;
11823;SDS011;5969;50.780;7.726;2023-05-29T06:21:20;6.22;;;4.78;;
11823;SDS011;5969;50.780;7.726;2023-05-29T06:23:47;6.75;;;4.43;;
11823;SDS011;5969;50.780;7.726;2023-05-29T06:26:14;6.18;;;4.30;;
11823;SDS011;5969;50.780;7.726;2023-05-29T06:28:41;5.50;;;3.90;;
11823;SDS011;5969;50.780;7.726;2023-05-29T06:31:07;6.47;;;4.82;;
11823;SDS011;5969;50.780;7.726;2023-05-29T06:33:35;4.88;;;4.32;;
11823;SDS011;5969;50.780;7.726;2023-05-29T06:36:04;7.40;;;4.82;;
11823;SDS011;5969;50.780;7.726;2023-05-29T06:38:31;8.02;;;5.07;;
11823;SDS011;5969;50.780;7.726;2023-05-29T06:40:58;7.53;;;4.72;;
11823;SDS011;5969;50.780;7.726;2023-05-29T06:43:25;7.70;;;4.97;;
11823;SDS011;5969;50.780;7.726;2023-05-29T06:45:53;4.63;;;4.13;;
11823;SDS011;5969;50.780;7.726;2023-05-29T06:48:20;6.05;;;4.88;;
11823;SDS011;5969;50.780;7.726;2023-05-29T06:50:47;5.40;;;4.43;;
11823;SDS011;5969;50.780;7.726;2023-05-29T06:53:15;4.97;;;4.47;;
11823;SDS011;5969;50.780;7.726;2023-05-29T06:55:42;8.55;;;4.50;;
11823;SDS011;5969;50.780;7.726;2023-05-29T06:58:08;6.20;;;3.88;;
11823;SDS011;5969;50.780;7.726;2023-05-29T07:00:35;6.53;;;4.15;;
11823;SDS011;5969;50.780;7.726;2023-05-29T07:03:02;5.88;;;3.92;;
11823;SDS011;5969;50.780;7.726;2023-05-29T07:05:31;5.90;;;4.05;;
11823;SDS011;5969;50.780;7.726;2023-05-29T07:07:57;5.30;;;3.92;;
11823;SDS011;5969;50.780;7.726;2023-05-29T07:10:26;7.90;;;4.35;;
11823;SDS011;5969;50.780;7.726;2023-05-29T07:12:52;6.05;;;4.07;;
11823;SDS011;5969;50.780;7.726;2023-05-29T07:15:19;6.10;;;4.63;;
11823;SDS011;5969;50.780;7.726;2023-05-29T07:17:46;8.85;;;4.50;;
11823;SDS011;5969;50.780;7.726;2023-05-29T07:20:13;7.40;;;4.25;;
11823;SDS011;5969;50.780;7.726;2023-05-29T07:22:40;4.70;;;4.05;;
11823;SDS011;5969;50.780;7.726;2023-05-29T07:25:07;6.32;;;3.88;;
11823;SDS011;5969;50.780;7.726;2023-05-29T07:27:36;5.05;;;3.90;;
11823;SDS011;5969;50.780;7.726;2023-05-29T07:30:03;6.82;;;3.83;;
11823;SDS011;5969;50.780;7.726;2023-05-29T07:32:30;6.30;;;4.20;;
11823;SDS011;5969;50.780;7.726;2023-05-29T07:34:57;5.60;;;4.20;;
11823;SDS011;5969;50.780;7.726;2023-05-29T07:37:24;5.03;;;4.05;;
11823;SDS011;5969;50.780;7.726;2023-05-29T07:39:51;7.05;;;4.22;;
11823;SDS011;5969;50.780;7.726;2023-05-29T07:42:17;5.32;;;4.28;;
11823;SDS011;5969;50.780;7.726;2023-05-29T07:44:45;6.32;;;4.10;;
11823;SDS011;5969;50.780;7.726;2023-05-29T07:47:13;7.97;;;4.07;;
11823;SDS011;5969;50.780;7.726;2023-05-29T07:49:40;5.78;;;4.43;;
11823;SDS011;5969;50.780;7.726;2023-05-29T07:52:07;8.27;;;4.25;;
11823;SDS011;5969;50.780;7.726;2023-05-29T07:54:34;6.95;;;4.38;;
11823;SDS011;5969;50.780;7.726;2023-05-29T07:57:00;7.07;;;4.30;;
11823;SDS011;5969;50.780;7.726;2023-05-29T07:59:28;6.55;;;3.63;;
11823;SDS011;5969;50.780;7.726;2023-05-29T08:01:57;7.07;;;4.43;;
11823;SDS011;5969;50.780;7.726;2023-05-29T08:04:25;7.18;;;4.22;;
11823;SDS011;5969;50.780;7.726;2023-05-29T08:06:52;7.45;;;4.10;;
11823;SDS011;5969;50.780;7.726;2023-05-29T08:09:21;7.20;;;4.45;;
11823;SDS011;5969;50.780;7.726;2023-05-29T08:11:47;8.35;;;4.28;;
11823;SDS011;5969;50.780;7.726;2023-05-29T08:14:14;5.68;;;4.07;;
11823;SDS011;5969;50.780;7.726;2023-05-29T08:16:41;6.75;;;3.90;;
11823;SDS011;5969;50.780;7.726;2023-05-29T08:19:09;5.80;;;4.38;;
11823;SDS011;5969;50.780;7.726;2023-05-29T08:21:36;7.47;;;4.55;;
11823;SDS011;5969;50.780;7.726;2023-05-29T08:24:07;6.97;;;5.00;;
11823;SDS011;5969;50.780;7.726;2023-05-29T08:26:46;8.27;;;4.03;;
11823;SDS011;5969;50.780;7.726;2023-05-29T08:29:12;4.60;;;4.15;;
11823;SDS011;5969;50.780;7.726;2023-05-29T08:31:39;5.75;;;4.22;;
11823;SDS011;5969;50.780;7.726;2023-05-29T08:34:06;7.70;;;4.80;;
11823;SDS011;5969;50.780;7.726;2023-05-29T08:36:36;5.05;;;3.90;;
11823;SDS011;5969;50.780;7.726;2023-05-29T08:39:02;6.60;;;3.85;;
11823;SDS011;5969;50.780;7.726;2023-05-29T08:41:32;8.60;;;4.50;;
11823;SDS011;5969;50.780;7.726;2023-05-29T08:44:05;5.68;;;3.92;;
11823;SDS011;5969;50.780;7.726;2023-05-29T08:46:39;8.40;;;3.92;;
11823;SDS011;5969;50.780;7.726;2023-05-29T08:49:06;5.00;;;3.72;;
11823;SDS011;5969;50.780;7.726;2023-05-29T08:51:37;5.32;;;3.70;;
11823;SDS011;5969;50.780;7.726;2023-05-29T08:54:06;7.47;;;4.45;;
11823;SDS011;5969;50.780;7.726;2023-05-29T08:56:33;5.97;;;4.43;;
11823;SDS011;5969;50.780;7.726;2023-05-29T08:59:01;5.90;;;3.90;;
11823;SDS011;5969;50.780;7.726;2023-05-29T09:01:28;6.90;;;4.15;;
11823;SDS011;5969;50.780;7.726;2023-05-29T09:03:56;6.68;;;4.30;;
11823;SDS011;5969;50.780;7.726;2023-05-29T09:06:23;5.03;;;4.13;;
11823;SDS011;5969;50.780;7.726;2023-05-29T09:08:52;8.38;;;4.70;;
11823;SDS011;5969;50.780;7.726;2023-05-29T09:11:19;7.20;;;3.85;;
11823;SDS011;5969;50.780;7.726;2023-05-29T09:13:46;7.95;;;4.32;;
11823;SDS011;5969;50.780;7.726;2023-05-29T09:16:14;4.95;;;3.80;;
11823;SDS011;5969;50.780;7.726;2023-05-29T09:18:42;6.15;;;3.75;;
11823;SDS011;5969;50.780;7.726;2023-05-29T09:21:13;7.53;;;4.22;;
11823;SDS011;5969;50.780;7.726;2023-05-29T09:23:53;8.23;;;4.32;;
11823;SDS011;5969;50.780;7.726;2023-05-29T09:34:01;8.63;;;4.05;;
11823;SDS011;5969;50.780;7.726;2023-05-29T09:36:33;5.55;;;3.83;;
11823;SDS011;5969;50.780;7.726;2023-05-29T09:39:03;4.75;;;4.07;;
11823;SDS011;5969;50.780;7.726;2023-05-29T09:41:31;5.10;;;3.65;;
11823;SDS011;5969;50.780;7.726;2023-05-29T09:43:59;5.63;;;3.33;;
11823;SDS011;5969;50.780;7.726;2023-05-29T09:46:28;5.25;;;4.05;;
11823;SDS011;5969;50.780;7.726;2023-05-29T09:49:00;6.00;;;3.90;;
11823;SDS011;5969;50.780;7.726;2023-05-29T09:51:28;5.00;;;3.53;;
11823;SDS011;5969;50.780;7.726;2023-05-29T09:53:56;7.95;;;3.55;;
11823;SDS011;5969;50.780;7.726;2023-05-29T09:56:27;6.35;;;3.63;;
11823;SDS011;5969;50.780;7.726;2023-05-29T09:58:56;8.48;;;4.07;;
11823;SDS011;5969;50.780;7.726;2023-05-29T10:01:23;6.13;;;3.80;;
11823;SDS011;5969;50.780;7.726;2023-05-29T10:03:50;5.78;;;3.78;;
11823;SDS011;5969;50.780;7.726;2023-05-29T10:06:18;8.57;;;3.97;;
11823;SDS011;5969;50.780;7.726;2023-05-29T10:08:46;7.32;;;3.85;;
11823;SDS011;5969;50.780;7.726;2023-05-29T10:11:19;4.60;;;3.58;;
11823;SDS011;5969;50.780;7.726;2023-05-29T10:13:51;5.90;;;3.70;;
11823;SDS011;5969;50.780;7.726;2023-05-29T10:16:19;5.70;;;3.97;;
11823;SDS011;5969;50.780;7.726;2023-05-29T10:18:47;5.68;;;3.85;;
11823;SDS011;5969;50.780;7.726;2023-05-29T10:21:19;5.53;;;3.75;;
11823;SDS011;5969;50.780;7.726;2023-05-29T10:23:48;7.03;;;3.60;;
11823;SDS011;5969;50.780;7.726;2023-05-29T10:26:18;6.22;;;3.78;;
11823;SDS011;5969;50.780;7.726;2023-05-29T10:28:49;7.72;;;4.10;;
11823;SDS011;5969;50.780;7.726;2023-05-29T10:31:24;7.53;;;3.35;;
11823;SDS011;5969;50.780;7.726;2023-05-29T10:34:01;8.10;;;4.07;;
11823;SDS011;5969;50.780;7.726;2023-05-29T10:36:35;6.30;;;3.60;;
11823;SDS011;5969;50.780;7.726;2023-05-29T10:39:08;7.80;;;3.60;;
11823;SDS011;5969;50.780;7.726;2023-05-29T10:41:35;6.40;;;3.92;;
11823;SDS011;5969;50.780;7.726;2023-05-29T10:47:06;6.25;;;3.80;;
11823;SDS011;5969;50.780;7.726;2023-05-29T10:49:34;5.32;;;3.58;;
11823;SDS011;5969;50.780;7.726;2023-05-29T10:52:00;6.30;;;3.90;;
11823;SDS011;5969;50.780;7.726;2023-05-29T10:54:29;6.32;;;3.50;;
11823;SDS011;5969;50.780;7.726;2023-05-29T10:57:07;4.55;;;3.15;;
11823;SDS011;5969;50.780;7.726;2023-05-29T10:59:36;4.75;;;3.20;;
11823;SDS011;5969;50.780;7.726;2023-05-29T11:02:03;6.22;;;3.20;;
11823;SDS011;5969;50.780;7.726;2023-05-29T11:04:31;5.07;;;3.50;;
11823;SDS011;5969;50.780;7.726;2023-05-29T11:06:59;6.78;;;3.15;;
11823;SDS011;5969;50.780;7.726;2023-05-29T11:09:31;4.60;;;3.00;;
11823;SDS011;5969;50.780;7.726;2023-05-29T11:12:10;4.65;;;3.22;;
11823;SDS011;5969;50.780;7.726;2023-05-29T11:15:03;7.28;;;3.35;;
11823;SDS011;5969;50.780;7.726;2023-05-29T11:17:54;6.22;;;3.35;;
11823;SDS011;5969;50.780;7.726;2023-05-29T11:48:11;5.57;;;3.00;;
11823;SDS011;5969;50.780;7.726;2023-05-29T11:50:39;6.43;;;2.83;;
11823;SDS011;5969;50.780;7.726;2023-05-29T11:56:13;9.23;;;3.13;;
11823;SDS011;5969;50.780;7.726;2023-05-29T11:58:42;6.03;;;3.30;;
11823;SDS011;5969;50.780;7.726;2023-05-29T12:01:47;6.03;;;3.25;;
11823;SDS011;5969;50.780;7.726;2023-05-29T12:04:16;8.60;;;3.30;;
11823;SDS011;5969;50.780;7.726;2023-05-29T12:06:54;5.50;;;2.75;;
11823;SDS011;5969;50.780;7.726;2023-05-29T12:09:24;6.70;;;3.15;;
11823;SDS011;5969;50.780;7.726;2023-05-29T12:11:54;6.32;;;2.97;;
11823;SDS011;5969;50.780;7.726;2023-05-29T12:14:29;6.00;;;3.15;;
11823;SDS011;5969;50.780;7.726;2023-05-29T12:16:56;6.13;;;2.92;;
11823;SDS011;5969;50.780;7.726;2023-05-29T12:19:24;4.95;;;3.38;;
11823;SDS011;5969;50.780;7.726;2023-05-29T12:21:52;5.75;;;2.83;;
11823;SDS011;5969;50.780;7.726;2023-05-29T12:24:19;8.85;;;3.40;;
11823;SDS011;5969;50.780;7.726;2023-05-29T12:26:46;3.28;;;2.63;;
11823;SDS011;5969;50.780;7.726;2023-05-29T12:29:13;5.38;;;2.67;;
11823;SDS011;5969;50.780;7.726;2023-05-29T12:31:40;5.38;;;2.78;;
11823;SDS011;5969;50.780;7.726;2023-05-29T12:34:07;6.20;;;3.03;;
11823;SDS011;5969;50.780;7.726;2023-05-29T12:36:36;6.15;;;3.15;;
11823;SDS011;5969;50.780;7.726;2023-05-29T12:39:06;4.82;;;3.15;;
11823;SDS011;5969;50.780;7.726;2023-05-29T12:41:35;4.95;;;2.65;;
11823;SDS011;5969;50.780;7.726;2023-05-29T12:44:03;4.47;;;3.15;;
11823;SDS011;5969;50.780;7.726;2023-05-29T12:46:35;6.53;;;3.10;;
11823;SDS011;5969;50.780;7.726;2023-05-29T12:49:11;5.07;;;2.60;;
11823;SDS011;5969;50.780;7.726;2023-05-29T12:51:41;4.55;;;2.78;;
11823;SDS011;5969;50.780;7.726;2023-05-29T12:54:09;5.75;;;2.97;;
11823;SDS011;5969;50.780;7.726;2023-05-29T12:56:36;8.73;;;3.10;;
11823;SDS011;5969;50.780;7.726;2023-05-29T12:59:05;4.20;;;2.45;;
11823;SDS011;5969;50.780;7.726;2023-05-29T13:01:32;5.15;;;3.08;;
11823;SDS011;5969;50.780;7.726;2023-05-29T13:03:59;4.95;;;2.80;;
11823;SDS011;5969;50.780;7.726;2023-05-29T13:06:26;5.28;;;3.03;;
11823;SDS011;5969;50.780;7.726;2023-05-29T13:08:54;5.95;;;2.72;;
11823;SDS011;5969;50.780;7.726;2023-05-29T13:11:21;5.55;;;3.10;;
11823;SDS011;5969;50.780;7.726;2023-05-29T13:13:48;5.90;;;2.80;;
11823;SDS011;5969;50.780;7.726;2023-05-29T13:16:14;7.35;;;3.50;;
11823;SDS011;5969;50.780;7.726;2023-05-29T13:18:42;7.95;;;3.05;;
11823;SDS011;5969;50.780;7.726;2023-05-29T13:21:09;5.13;;;3.10;;
11823;SDS011;5969;50.780;7.726;2023-05-29T13:23:36;12.05;;;3.30;;
11823;SDS011;5969;50.780;7.726;2023-05-29T13:26:05;5.13;;;2.80;;
11823;SDS011;5969;50.780;7.726;2023-05-29T13:28:32;6.80;;;3.13;;
11823;SDS011;5969;50.780;7.726;2023-05-29T13:30:59;9.18;;;3.30;;
11823;SDS011;5969;50.780;7.726;2023-05-29T13:33:26;6.05;;;3.17;;
11823;SDS011;5969;50.780;7.726;2023-05-29T13:35:52;6.95;;;3.08;;
11823;SDS011;5969;50.780;7.726;2023-05-29T13:38:19;6.50;;;3.20;;
11823;SDS011;5969;50.780;7.726;2023-05-29T13:40:46;6.90;;;2.80;;
11823;SDS011;5969;50.780;7.726;2023-05-29T13:43:14;8.05;;;3.08;;
11823;SDS011;5969;50.780;7.726;2023-05-29T13:45:41;8.57;;;3.05;;
11823;SDS011;5969;50.780;7.726;2023-05-29T13:48:08;6.72;;;3.05;;
11823;SDS011;5969;50.780;7.726;2023-05-29T13:50:35;5.70;;;3.22;;
11823;SDS011;5969;50.780;7.726;2023-05-29T13:53:01;7.72;;;3.13;;
11823;SDS011;5969;50.780;7.726;2023-05-29T13:55:28;5.40;;;2.90;;
11823;SDS011;5969;50.780;7.726;2023-05-29T13:57:55;6.82;;;3.05;;
11823;SDS011;5969;50.780;7.726;2023-05-29T14:00:24;9.00;;;3.13;;
11823;SDS011;5969;50.780;7.726;2023-05-29T14:02:52;5.18;;;2.80;;
11823;SDS011;5969;50.780;7.726;2023-05-29T14:05:19;5.40;;;3.08;;
11823;SDS011;5969;50.780;7.726;2023-05-29T14:07:45;5.70;;;3.08;;
11823;SDS011;5969;50.780;7.726;2023-05-29T14:10:12;5.88;;;3.08;;
11823;SDS011;5969;50.780;7.726;2023-05-29T14:12:39;5.43;;;3.28;;
11823;SDS011;5969;50.780;7.726;2023-05-29T14:15:06;6.75;;;3.13;;
11823;SDS011;5969;50.780;7.726;2023-05-29T14:17:36;5.47;;;2.72;;
11823;SDS011;5969;50.780;7.726;2023-05-29T14:20:03;4.55;;;3.03;;
11823;SDS011;5969;50.780;7.726;2023-05-29T14:22:33;7.00;;;2.88;;
11823;SDS011;5969;50.780;7.726;2023-05-29T14:25:00;4.60;;;2.78;;
11823;SDS011;5969;50.780;7.726;2023-05-29T14:27:30;6.05;;;3.22;;
11823;SDS011;5969;50.780;7.726;2023-05-29T14:29:58;5.95;;;2.40;;
11823;SDS011;5969;50.780;7.726;2023-05-29T14:32:26;5.00;;;3.08;;
11823;SDS011;5969;50.780;7.726;2023-05-29T14:34:54;6.95;;;2.95;;
11823;SDS011;5969;50.780;7.726;2023-05-29T14:37:22;6.43;;;3.40;;
11823;SDS011;5969;50.780;7.726;2023-05-29T14:39:49;6.07;;;3.08;;
11823;SDS011;5969;50.780;7.726;2023-05-29T14:42:21;6.35;;;2.90;;
11823;SDS011;5969;50.780;7.726;2023-05-29T14:44:49;5.82;;;3.13;;
11823;SDS011;5969;50.780;7.726;2023-05-29T14:47:16;5.80;;;2.97;;
11823;SDS011;5969;50.780;7.726;2023-05-29T14:49:50;20.88;;;4.10;;
11823;SDS011;5969;50.780;7.726;2023-05-29T14:52:18;4.90;;;2.70;;
11823;SDS011;5969;50.780;7.726;2023-05-29T14:54:45;4.90;;;2.65;;
11823;SDS011;5969;50.780;7.726;2023-05-29T14:57:12;4.65;;;2.70;;
11823;SDS011;5969;50.780;7.726;2023-05-29T14:59:39;6.13;;;3.25;;
11823;SDS011;5969;50.780;7.726;2023-05-29T15:02:06;5.75;;;2.80;;
11823;SDS011;5969;50.780;7.726;2023-05-29T15:04:34;7.97;;;2.83;;
11823;SDS011;5969;50.780;7.726;2023-05-29T15:07:08;7.90;;;3.35;;
11823;SDS011;5969;50.780;7.726;2023-05-29T15:09:37;5.88;;;3.33;;
11823;SDS011;5969;50.780;7.726;2023-05-29T15:12:04;6.55;;;2.80;;
11823;SDS011;5969;50.780;7.726;2023-05-29T15:14:32;10.73;;;3.03;;
11823;SDS011;5969;50.780;7.726;2023-05-29T15:17:01;8.43;;;3.25;;
11823;SDS011;5969;50.780;7.726;2023-05-29T15:19:29;5.43;;;3.03;;
11823;SDS011;5969;50.780;7.726;2023-05-29T15:21:56;5.38;;;2.90;;
11823;SDS011;5969;50.780;7.726;2023-05-29T15:24:23;5.72;;;3.15;;
11823;SDS011;5969;50.780;7.726;2023-05-29T15:26:53;14.25;;;3.58;;
11823;SDS011;5969;50.780;7.726;2023-05-29T15:29:22;6.15;;;2.97;;
11823;SDS011;5969;50.780;7.726;2023-05-29T15:31:49;7.53;;;3.20;;
11823;SDS011;5969;50.780;7.726;2023-05-29T15:34:16;5.03;;;3.05;;
11823;SDS011;5969;50.780;7.726;2023-05-29T15:36:43;6.65;;;3.08;;
11823;SDS011;5969;50.780;7.726;2023-05-29T15:39:10;5.63;;;2.80;;
11823;SDS011;5969;50.780;7.726;2023-05-29T15:41:37;7.43;;;3.25;;
11823;SDS011;5969;50.780;7.726;2023-05-29T15:44:05;21.25;;;3.90;;
11823;SDS011;5969;50.780;7.726;2023-05-29T15:46:33;8.65;;;2.83;;
11823;SDS011;5969;50.780;7.726;2023-05-29T15:49:00;6.68;;;2.90;;